Time;durP1;ratioP1;P1;durP2;ratioP2;P2;SDS_P1;SDS_P2;PMS_P1;PMS_P2;Temp;Humidity;BMP_temperature;BMP_pressure;BME280_temperature;BME280_humidity;BME280_pressure;Samples;Min_cycle;Max_cycle;Signal;HPM_P1;HPM_P2
2023/07/16 00:03:00;;;;;;;1.50;1.13;;;;;;;;;;10178456;28;20231;-78
2023/07/16 00:08:01;;;;;;;0.90;0.90;;;;;;;;;;10206054;28;21384;-78
2023/07/16 00:13:03;;;;;;;1.00;0.95;;;;;;;;;;10195700;28;20224;-77
2023/07/16 00:18:05;;;;;;;1.27;0.80;;;;;;;;;;10173708;28;20255;-78
2023/07/16 00:23:06;;;;;;;1.98;1.23;;;;;;;;;;10194888;28;20224;-77
2023/07/16 00:28:08;;;;;;;0.80;0.75;;;;;;;;;;10185814;28;20220;-80
2023/07/16 00:33:09;;;;;;;0.80;0.80;;;;;;;;;;10188439;28;21165;-78
2023/07/16 00:38:10;;;;;;;1.05;1.05;;;;;;;;;;10172175;28;20218;-79
2023/07/16 00:43:11;;;;;;;1.52;1.42;;;;;;;;;;10180802;28;20228;-78
2023/07/16 00:48:13;;;;;;;3.90;0.80;;;;;;;;;;10171181;28;20617;-79
2023/07/16 00:53:14;;;;;;;5.95;0.93;;;;;;;;;;10204268;28;20230;-77
2023/07/16 00:58:15;;;;;;;1.55;1.13;;;;;;;;;;10184481;28;20212;-77
2023/07/16 01:03:16;;;;;;;0.98;0.98;;;;;;;;;;10186588;28;20311;-77
2023/07/16 01:08:22;;;;;;;0.93;0.93;;;;;;;;;;10187361;28;20243;-77
2023/07/16 01:13:24;;;;;;;0.70;0.70;;;;;;;;;;10190661;28;20272;-76
2023/07/16 01:18:25;;;;;;;1.25;0.82;;;;;;;;;;10190552;28;20834;-78
2023/07/16 01:23:26;;;;;;;1.85;1.08;;;;;;;;;;10181283;28;20232;-76
2023/07/16 01:28:33;;;;;;;0.90;0.90;;;;;;;;;;10199950;28;20928;-77
2023/07/16 01:33:34;;;;;;;1.02;0.95;;;;;;;;;;10209687;28;20262;-76
2023/07/16 01:38:36;;;;;;;0.57;0.57;;;;;;;;;;10197083;28;21457;-77
2023/07/16 01:43:37;;;;;;;0.98;0.73;;;;;;;;;;10194575;28;20287;-77
2023/07/16 01:48:38;;;;;;;0.63;0.63;;;;;;;;;;10204375;28;20323;-77
2023/07/16 01:53:40;;;;;;;0.82;0.82;;;;;;;;;;10217918;28;20224;-77
2023/07/16 01:58:41;;;;;;;0.88;0.88;;;;;;;;;;10208486;28;20215;-78
2023/07/16 02:03:42;;;;;;;0.90;0.75;;;;;;;;;;10207903;28;21676;-78
2023/07/16 02:08:43;;;;;;;0.80;0.73;;;;;;;;;;10209010;28;20268;-77
2023/07/16 02:13:44;;;;;;;0.85;0.68;;;;;;;;;;10218352;28;20921;-77
2023/07/16 02:18:45;;;;;;;0.60;0.52;;;;;;;;;;10198331;28;20798;-78
2023/07/16 02:23:46;;;;;;;1.10;1.10;;;;;;;;;;10192609;28;20822;-77
2023/07/16 02:28:47;;;;;;;1.42;0.85;;;;;;;;;;10192041;28;20234;-76
2023/07/16 02:33:49;;;;;;;0.98;0.98;;;;;;;;;;10197560;28;20224;-76
2023/07/16 02:38:50;;;;;;;0.90;0.90;;;;;;;;;;10198760;28;20223;-76
2023/07/16 02:43:59;;;;;;;1.30;0.90;;;;;;;;;;10199878;28;20231;-76
2023/07/16 02:49:01;;;;;;;1.23;1.13;;;;;;;;;;10177594;28;20343;-78
2023/07/16 02:54:02;;;;;;;1.85;0.73;;;;;;;;;;10206263;28;20216;-76
2023/07/16 02:59:03;;;;;;;0.60;0.60;;;;;;;;;;10198095;28;20216;-78
2023/07/16 03:04:04;;;;;;;1.02;1.02;;;;;;;;;;10191221;28;20223;-81
2023/07/16 03:09:05;;;;;;;1.20;0.80;;;;;;;;;;10200922;28;22549;-76
2023/07/16 03:14:06;;;;;;;0.80;0.80;;;;;;;;;;10190061;28;20227;-77
2023/07/16 03:19:08;;;;;;;0.80;0.80;;;;;;;;;;10195788;28;20220;-78
2023/07/16 03:24:09;;;;;;;0.80;0.80;;;;;;;;;;10191821;28;21281;-77
2023/07/16 03:29:10;;;;;;;0.70;0.68;;;;;;;;;;10193865;28;20252;-79
2023/07/16 03:34:11;;;;;;;0.70;0.70;;;;;;;;;;10199123;28;20229;-78
2023/07/16 03:39:13;;;;;;;0.80;0.80;;;;;;;;;;10166027;28;20308;-76
2023/07/16 03:44:14;;;;;;;0.80;0.80;;;;;;;;;;10203112;28;20225;-77
2023/07/16 03:49:15;;;;;;;0.80;0.80;;;;;;;;;;10195094;28;20216;-76
2023/07/16 03:54:16;;;;;;;0.73;0.73;;;;;;;;;;10178570;28;22543;-80
2023/07/16 03:59:18;;;;;;;0.70;0.70;;;;;;;;;;10191464;28;20447;-76
2023/07/16 04:04:20;;;;;;;2.65;0.60;;;;;;;;;;10190121;28;20923;-78
2023/07/16 04:09:22;;;;;;;0.95;0.90;;;;;;;;;;10190299;28;24288;-77
2023/07/16 04:14:23;;;;;;;2.33;0.80;;;;;;;;;;10224382;28;20227;-77
2023/07/16 04:19:24;;;;;;;0.85;0.85;;;;;;;;;;10217438;28;21227;-76
2023/07/16 04:24:26;;;;;;;1.27;1.27;;;;;;;;;;10229944;28;20229;-78
2023/07/16 04:29:27;;;;;;;0.73;0.73;;;;;;;;;;10227619;28;20277;-77
2023/07/16 04:34:29;;;;;;;2.05;0.95;;;;;;;;;;10219956;28;20306;-78
2023/07/16 04:39:30;;;;;;;2.40;1.08;;;;;;;;;;10229599;28;20489;-80
2023/07/16 04:44:31;;;;;;;0.93;0.90;;;;;;;;;;10234684;28;20621;-78
2023/07/16 04:49:32;;;;;;;0.65;0.65;;;;;;;;;;10241085;28;21228;-78
2023/07/16 04:54:39;;;;;;;0.70;0.70;;;;;;;;;;10227363;28;21076;-78
2023/07/16 04:59:41;;;;;;;0.75;0.75;;;;;;;;;;10216075;28;20213;-78
2023/07/16 05:04:43;;;;;;;0.60;0.60;;;;;;;;;;10222548;28;20351;-76
2023/07/16 05:09:44;;;;;;;2.50;0.75;;;;;;;;;;10214816;28;20318;-78
2023/07/16 05:14:47;;;;;;;0.70;0.70;;;;;;;;;;10209360;28;20239;-79
2023/07/16 05:19:48;;;;;;;1.48;0.90;;;;;;;;;;10200406;28;20223;-76
2023/07/16 05:24:49;;;;;;;3.60;1.25;;;;;;;;;;10189985;28;20507;-76
2023/07/16 05:29:50;;;;;;;0.70;0.70;;;;;;;;;;10211376;28;21333;-77
2023/07/16 05:34:52;;;;;;;0.77;0.70;;;;;;;;;;10221356;28;21417;-76
2023/07/16 05:39:53;;;;;;;0.77;0.70;;;;;;;;;;10204691;28;20216;-77
2023/07/16 05:44:54;;;;;;;2.17;0.85;;;;;;;;;;10212762;28;20228;-77
2023/07/16 05:49:55;;;;;;;0.77;0.77;;;;;;;;;;10208363;28;21469;-76
2023/07/16 05:54:56;;;;;;;0.85;0.60;;;;;;;;;;10206584;28;24385;-78
2023/07/16 05:59:57;;;;;;;0.60;0.60;;;;;;;;;;10203558;28;20243;-76
2023/07/16 06:04:58;;;;;;;0.40;0.40;;;;;;;;;;10205700;28;20216;-76
2023/07/16 06:09:59;;;;;;;2.10;0.70;;;;;;;;;;10191101;28;20282;-79
2023/07/16 06:15:00;;;;;;;0.40;0.40;;;;;;;;;;10198818;28;21291;-77
2023/07/16 06:20:02;;;;;;;1.08;0.50;;;;;;;;;;10197588;28;20471;-76
2023/07/16 06:25:04;;;;;;;0.60;0.60;;;;;;;;;;10168103;28;20232;-76
2023/07/16 06:30:06;;;;;;;0.60;0.60;;;;;;;;;;10177372;28;20220;-76
2023/07/16 06:35:07;;;;;;;1.13;0.80;;;;;;;;;;10184773;28;20226;-77
2023/07/16 06:40:08;;;;;;;0.70;0.70;;;;;;;;;;10176197;28;20283;-76
2023/07/16 06:45:09;;;;;;;0.60;0.60;;;;;;;;;;10194279;28;20204;-75
2023/07/16 06:50:10;;;;;;;0.75;0.50;;;;;;;;;;10175680;28;20194;-74
2023/07/16 06:55:11;;;;;;;0.60;0.60;;;;;;;;;;10173304;28;20891;-74
2023/07/16 07:00:12;;;;;;;0.52;0.52;;;;;;;;;;10194445;28;20271;-76
2023/07/16 07:05:14;;;;;;;0.55;0.52;;;;;;;;;;10173913;28;20335;-74
2023/07/16 07:10:15;;;;;;;0.63;0.50;;;;;;;;;;10176141;28;20474;-75
2023/07/16 07:15:16;;;;;;;0.40;0.40;;;;;;;;;;10203946;28;20217;-76
2023/07/16 07:20:17;;;;;;;0.60;0.60;;;;;;;;;;10174075;28;20196;-76
2023/07/16 07:25:18;;;;;;;2.95;0.60;;;;;;;;;;10186233;28;20247;-77
2023/07/16 07:30:19;;;;;;;1.20;0.50;;;;;;;;;;10192524;28;20189;-75
2023/07/16 07:35:20;;;;;;;2.45;0.60;;;;;;;;;;10192454;28;20743;-75
2023/07/16 07:40:21;;;;;;;0.52;0.52;;;;;;;;;;10189326;28;23397;-75
2023/07/16 07:45:23;;;;;;;0.93;0.70;;;;;;;;;;10182747;28;20212;-77
2023/07/16 07:50:25;;;;;;;5.05;0.90;;;;;;;;;;10188343;28;20263;-77
2023/07/16 07:55:26;;;;;;;0.60;0.60;;;;;;;;;;10172397;28;20252;-76
2023/07/16 08:00:27;;;;;;;0.60;0.38;;;;;;;;;;10176753;28;21282;-78
2023/07/16 08:05:28;;;;;;;1.63;0.47;;;;;;;;;;10191107;28;20724;-76
2023/07/16 08:10:29;;;;;;;0.70;0.43;;;;;;;;;;10191050;28;20238;-76
2023/07/16 08:15:30;;;;;;;1.65;0.40;;;;;;;;;;10192225;28;20692;-77
2023/07/16 08:20:32;;;;;;;0.30;0.30;;;;;;;;;;10171712;28;21323;-79
2023/07/16 08:25:33;;;;;;;0.30;0.30;;;;;;;;;;10216950;28;20302;-76
2023/07/16 08:30:34;;;;;;;0.40;0.40;;;;;;;;;;10205930;28;20246;-80
2023/07/16 08:35:35;;;;;;;0.65;0.65;;;;;;;;;;10174220;28;20228;-79
2023/07/16 08:40:39;;;;;;;1.08;0.57;;;;;;;;;;10197160;28;20438;-75
2023/07/16 08:45:42;;;;;;;0.57;0.40;;;;;;;;;;10201223;28;20737;-76
2023/07/16 08:50:47;;;;;;;0.30;0.20;;;;;;;;;;10206826;28;20220;-79
2023/07/16 08:55:48;;;;;;;0.38;0.30;;;;;;;;;;10203834;28;20227;-76
2023/07/16 09:00:49;;;;;;;0.77;0.22;;;;;;;;;;10203195;28;20227;-77
2023/07/16 09:05:51;;;;;;;0.35;0.30;;;;;;;;;;10197142;28;20231;-76
2023/07/16 09:10:55;;;;;;;1.13;0.30;;;;;;;;;;10204931;28;20236;-79
2023/07/16 09:15:57;;;;;;;0.73;0.25;;;;;;;;;;10216269;28;20220;-79
2023/07/16 09:21:01;;;;;;;1.25;0.30;;;;;;;;;;10217315;28;20216;-78
2023/07/16 09:26:03;;;;;;;1.85;0.50;;;;;;;;;;10190556;28;20359;-78
2023/07/16 09:31:06;;;;;;;0.40;0.40;;;;;;;;;;10207885;28;20346;-76
2023/07/16 09:36:07;;;;;;;3.80;0.50;;;;;;;;;;10208278;28;20272;-76
2023/07/16 09:41:09;;;;;;;0.40;0.40;;;;;;;;;;10205404;28;21118;-76
2023/07/16 09:46:10;;;;;;;0.20;0.20;;;;;;;;;;10198608;28;20250;-76
2023/07/16 09:51:12;;;;;;;0.45;0.20;;;;;;;;;;10201933;28;20258;-78
2023/07/16 09:56:13;;;;;;;1.00;0.40;;;;;;;;;;10203824;28;20216;-79
2023/07/16 10:01:15;;;;;;;1.23;0.30;;;;;;;;;;10217388;28;20944;-77
2023/07/16 10:06:16;;;;;;;0.30;0.30;;;;;;;;;;10200927;28;20227;-79
2023/07/16 10:11:17;;;;;;;6.32;0.63;;;;;;;;;;10209612;28;20235;-78
2023/07/16 10:16:27;;;;;;;1.00;0.40;;;;;;;;;;10218092;28;21247;-80
2023/07/16 10:21:28;;;;;;;0.30;0.30;;;;;;;;;;10189422;28;20220;-78
2023/07/16 10:26:29;;;;;;;0.30;0.30;;;;;;;;;;10203180;28;20255;-75
2023/07/16 10:31:35;;;;;;;0.55;0.35;;;;;;;;;;10181715;28;20343;-77
2023/07/16 10:36:39;;;;;;;2.55;0.50;;;;;;;;;;10186214;28;22193;-77
2023/07/16 10:41:40;;;;;;;0.30;0.30;;;;;;;;;;10197611;28;20224;-78
2023/07/16 10:46:44;;;;;;;2.15;0.40;;;;;;;;;;10202151;28;20318;-76
2023/07/16 10:51:45;;;;;;;0.30;0.30;;;;;;;;;;10196835;28;20298;-75
2023/07/16 10:56:48;;;;;;;0.40;0.40;;;;;;;;;;10204390;28;21297;-76
2023/07/16 11:01:49;;;;;;;1.15;0.40;;;;;;;;;;10202534;28;22288;-76
2023/07/16 11:06:50;;;;;;;0.40;0.40;;;;;;;;;;10210004;28;20247;-77
2023/07/16 11:11:51;;;;;;;0.40;0.40;;;;;;;;;;10193148;28;20266;-76
2023/07/16 11:16:52;;;;;;;0.45;0.45;;;;;;;;;;10186296;28;20216;-76
2023/07/16 11:21:54;;;;;;;0.65;0.40;;;;;;;;;;10191054;28;20239;-77
2023/07/16 11:26:58;;;;;;;0.40;0.40;;;;;;;;;;10189985;28;20320;-78
2023/07/16 11:32:00;;;;;;;2.00;0.40;;;;;;;;;;10195984;28;20685;-77
2023/07/16 11:37:08;;;;;;;2.17;0.40;;;;;;;;;;10200856;28;20212;-78
2023/07/16 11:42:09;;;;;;;1.38;0.50;;;;;;;;;;10195154;28;20717;-78
2023/07/16 11:47:10;;;;;;;2.95;0.38;;;;;;;;;;10207030;28;20208;-76
2023/07/16 11:52:11;;;;;;;1.65;0.22;;;;;;;;;;10186079;28;21030;-80
2023/07/16 11:57:12;;;;;;;0.43;0.43;;;;;;;;;;10193532;28;20224;-77
2023/07/16 12:02:14;;;;;;;1.00;0.57;;;;;;;;;;10206972;28;20900;-78
2023/07/16 12:07:15;;;;;;;0.40;0.40;;;;;;;;;;10207396;28;20602;-77
2023/07/16 12:12:16;;;;;;;0.50;0.40;;;;;;;;;;10219611;28;20666;-76
2023/07/16 12:17:17;;;;;;;1.40;0.40;;;;;;;;;;10221282;28;20211;-77
2023/07/16 12:22:19;;;;;;;2.05;0.50;;;;;;;;;;10198566;28;20362;-77
2023/07/16 12:27:21;;;;;;;0.43;0.40;;;;;;;;;;10205646;28;20528;-76
2023/07/16 12:32:22;;;;;;;0.47;0.47;;;;;;;;;;10220093;28;20342;-75
2023/07/16 12:37:23;;;;;;;0.95;0.50;;;;;;;;;;10226000;28;20717;-77
2023/07/16 12:42:24;;;;;;;0.40;0.40;;;;;;;;;;10235014;28;20289;-76
2023/07/16 12:47:25;;;;;;;0.55;0.40;;;;;;;;;;10215958;28;20230;-77
2023/07/16 12:52:26;;;;;;;0.40;0.40;;;;;;;;;;10213846;28;20231;-75
2023/07/16 12:57:27;;;;;;;1.95;0.47;;;;;;;;;;10226512;28;20204;-76
2023/07/16 13:02:28;;;;;;;0.40;0.40;;;;;;;;;;10193095;28;20227;-77
2023/07/16 13:07:31;;;;;;;0.50;0.50;;;;;;;;;;10217210;28;20244;-78
2023/07/16 13:12:32;;;;;;;1.27;0.40;;;;;;;;;;10196803;28;20223;-77
2023/07/16 13:17:33;;;;;;;0.57;0.57;;;;;;;;;;10215928;28;20243;-76
2023/07/16 13:22:34;;;;;;;2.55;0.50;;;;;;;;;;10214675;28;20315;-75
2023/07/16 13:27:35;;;;;;;0.40;0.40;;;;;;;;;;10197087;28;20216;-75
2023/07/16 13:32:36;;;;;;;0.98;0.47;;;;;;;;;;10191441;28;20219;-78
2023/07/16 13:37:37;;;;;;;0.43;0.40;;;;;;;;;;10213069;28;20251;-76
2023/07/16 13:42:38;;;;;;;0.40;0.40;;;;;;;;;;10211063;28;20234;-75
2023/07/16 13:47:40;;;;;;;0.40;0.40;;;;;;;;;;10212189;28;20220;-78
2023/07/16 13:52:41;;;;;;;0.55;0.55;;;;;;;;;;10199790;28;20367;-77
2023/07/16 13:57:43;;;;;;;0.50;0.50;;;;;;;;;;10213097;28;20258;-77
2023/07/16 14:02:44;;;;;;;1.10;0.50;;;;;;;;;;10210601;28;20892;-78
2023/07/16 14:07:46;;;;;;;0.57;0.50;;;;;;;;;;10209438;28;20263;-77
2023/07/16 14:12:47;;;;;;;0.75;0.55;;;;;;;;;;10219205;28;20231;-77
2023/07/16 14:17:48;;;;;;;1.85;0.47;;;;;;;;;;10200295;28;20573;-75
2023/07/16 14:22:49;;;;;;;0.80;0.50;;;;;;;;;;10198715;28;22693;-74
2023/07/16 14:27:51;;;;;;;0.50;0.50;;;;;;;;;;10204538;28;20220;-75
2023/07/16 14:32:52;;;;;;;0.52;0.52;;;;;;;;;;10196419;28;21501;-79
2023/07/16 14:37:53;;;;;;;1.02;0.70;;;;;;;;;;10200870;28;20236;-78
2023/07/16 14:42:54;;;;;;;1.40;0.57;;;;;;;;;;10181300;28;22165;-73
2023/07/16 14:47:55;;;;;;;0.85;0.60;;;;;;;;;;10202583;28;20456;-80
2023/07/16 14:52:56;;;;;;;0.60;0.60;;;;;;;;;;10188962;28;20685;-77
2023/07/16 14:57:57;;;;;;;0.70;0.70;;;;;;;;;;10201497;28;20251;-79
2023/07/16 15:02:58;;;;;;;0.50;0.50;;;;;;;;;;10198149;28;20220;-80
2023/07/16 15:07:59;;;;;;;0.40;0.40;;;;;;;;;;10182853;28;20235;-77
2023/07/16 15:13:01;;;;;;;1.10;0.60;;;;;;;;;;10196055;28;21322;-78
2023/07/16 15:18:02;;;;;;;0.60;0.60;;;;;;;;;;10197410;28;20216;-76
2023/07/16 15:23:03;;;;;;;0.60;0.60;;;;;;;;;;10204959;28;20231;-79
2023/07/16 15:28:04;;;;;;;0.60;0.60;;;;;;;;;;10202130;28;20235;-82
2023/07/16 15:33:05;;;;;;;1.77;0.80;;;;;;;;;;10195656;28;20861;-79
2023/07/16 15:38:06;;;;;;;1.45;0.50;;;;;;;;;;10198035;28;21811;-77
2023/07/16 15:43:07;;;;;;;0.57;0.57;;;;;;;;;;10205562;28;20355;-78
2023/07/16 15:48:08;;;;;;;2.15;0.57;;;;;;;;;;10179426;28;20267;-76
2023/07/16 15:53:09;;;;;;;0.60;0.60;;;;;;;;;;10195922;28;20351;-79
2023/07/16 15:58:12;;;;;;;0.60;0.60;;;;;;;;;;10195947;28;20314;-78
2023/07/16 16:03:13;;;;;;;1.30;0.55;;;;;;;;;;10198315;28;20315;-77
2023/07/16 16:08:16;;;;;;;0.70;0.70;;;;;;;;;;10208402;28;20236;-76
2023/07/16 16:13:18;;;;;;;0.63;0.63;;;;;;;;;;10202359;28;21017;-80
2023/07/16 16:18:19;;;;;;;0.57;0.57;;;;;;;;;;10208945;28;23737;-78
2023/07/16 16:23:21;;;;;;;0.65;0.60;;;;;;;;;;10209132;28;20224;-75
2023/07/16 16:28:22;;;;;;;0.90;0.50;;;;;;;;;;10179018;28;20227;-75
2023/07/16 16:33:23;;;;;;;5.15;0.65;;;;;;;;;;10200929;28;20220;-75
2023/07/16 16:38:24;;;;;;;0.57;0.57;;;;;;;;;;10192682;28;21327;-76
2023/07/16 16:43:25;;;;;;;0.80;0.80;;;;;;;;;;10213560;28;20228;-77
2023/07/16 16:48:27;;;;;;;0.55;0.55;;;;;;;;;;10217098;28;20896;-79
2023/07/16 16:53:29;;;;;;;0.50;0.50;;;;;;;;;;10211734;28;20226;-78
2023/07/16 16:58:30;;;;;;;2.45;0.50;;;;;;;;;;10204846;28;20611;-76
2023/07/16 17:03:31;;;;;;;0.57;0.57;;;;;;;;;;10208473;28;20752;-78
2023/07/16 17:08:32;;;;;;;0.63;0.63;;;;;;;;;;10203711;28;20848;-78
2023/07/16 17:13:33;;;;;;;1.13;0.80;;;;;;;;;;10210971;28;20224;-78
2023/07/16 17:18:34;;;;;;;0.80;0.80;;;;;;;;;;10209818;28;20509;-75
2023/07/16 17:23:36;;;;;;;0.95;0.90;;;;;;;;;;10199902;28;21776;-76
2023/07/16 17:28:37;;;;;;;1.05;0.65;;;;;;;;;;10199443;28;21543;-76
2023/07/16 17:33:38;;;;;;;1.50;0.70;;;;;;;;;;10200041;28;20221;-79
2023/07/16 17:38:39;;;;;;;0.80;0.80;;;;;;;;;;10206275;28;21526;-79
2023/07/16 17:43:40;;;;;;;0.73;0.73;;;;;;;;;;10190342;28;20221;-76
2023/07/16 17:48:41;;;;;;;0.68;0.68;;;;;;;;;;10189004;28;20478;-77
2023/07/16 17:53:42;;;;;;;2.35;0.80;;;;;;;;;;10201343;28;20231;-78
2023/07/16 17:58:43;;;;;;;1.40;0.80;;;;;;;;;;10207574;28;20243;-76
2023/07/16 18:03:44;;;;;;;2.45;0.80;;;;;;;;;;10195709;28;20228;-79
2023/07/16 18:08:45;;;;;;;0.82;0.70;;;;;;;;;;10198136;28;20315;-76
2023/07/16 18:13:46;;;;;;;0.80;0.80;;;;;;;;;;10184682;28;20256;-79
2023/07/16 18:18:47;;;;;;;0.80;0.80;;;;;;;;;;10196411;28;20216;-79
2023/07/16 18:23:48;;;;;;;0.75;0.75;;;;;;;;;;10201310;28;21182;-75
2023/07/16 18:28:50;;;;;;;0.60;0.60;;;;;;;;;;10184503;28;21476;-76
2023/07/16 18:33:52;;;;;;;0.70;0.70;;;;;;;;;;10183411;28;20616;-76
2023/07/16 18:38:53;;;;;;;1.23;0.90;;;;;;;;;;10180429;28;20220;-76
2023/07/16 18:43:54;;;;;;;0.60;0.60;;;;;;;;;;10184854;28;21088;-78
2023/07/16 18:48:56;;;;;;;1.30;0.93;;;;;;;;;;10196843;28;20777;-77
2023/07/16 18:53:57;;;;;;;0.60;0.60;;;;;;;;;;10190315;28;20860;-75
2023/07/16 18:58:58;;;;;;;0.70;0.70;;;;;;;;;;10193116;28;20219;-78
2023/07/16 19:04:01;;;;;;;0.90;0.80;;;;;;;;;;10190109;28;22236;-75
2023/07/16 19:09:02;;;;;;;2.05;0.75;;;;;;;;;;10176731;28;20244;-76
2023/07/16 19:14:04;;;;;;;0.80;0.80;;;;;;;;;;10184455;28;22709;-74
2023/07/16 19:19:05;;;;;;;0.93;0.93;;;;;;;;;;10189294;28;20401;-76
2023/07/16 19:24:06;;;;;;;0.70;0.60;;;;;;;;;;10186004;28;20228;-78
2023/07/16 19:29:07;;;;;;;0.98;0.80;;;;;;;;;;10192470;28;20307;-77
2023/07/16 19:34:10;;;;;;;0.82;0.82;;;;;;;;;;10198371;28;21734;-76
2023/07/16 19:39:11;;;;;;;0.70;0.70;;;;;;;;;;10189483;28;20220;-75
2023/07/16 19:44:13;;;;;;;0.80;0.70;;;;;;;;;;10198395;28;20212;-77
2023/07/16 19:49:14;;;;;;;3.60;0.80;;;;;;;;;;10194755;28;20213;-74
2023/07/16 19:54:15;;;;;;;0.90;0.90;;;;;;;;;;10181972;28;20220;-76
2023/07/16 19:59:16;;;;;;;1.23;1.13;;;;;;;;;;10186737;28;21325;-77
2023/07/16 20:04:17;;;;;;;0.70;0.70;;;;;;;;;;10194029;28;20227;-76
2023/07/16 20:09:20;;;;;;;0.60;0.60;;;;;;;;;;10201750;28;20244;-76
2023/07/16 20:14:21;;;;;;;0.75;0.75;;;;;;;;;;10200580;28;20763;-78
2023/07/16 20:19:23;;;;;;;0.70;0.70;;;;;;;;;;10193024;28;20219;-78
2023/07/16 20:24:24;;;;;;;0.75;0.73;;;;;;;;;;10182675;28;20235;-79
2023/07/16 20:29:25;;;;;;;1.38;0.80;;;;;;;;;;10193892;28;20221;-80
2023/07/16 20:34:26;;;;;;;0.63;0.63;;;;;;;;;;10200146;28;20223;-79
2023/07/16 20:39:28;;;;;;;2.75;0.75;;;;;;;;;;10194817;28;20212;-78
2023/07/16 20:44:29;;;;;;;1.88;1.00;;;;;;;;;;10192207;28;20217;-78
2023/07/16 20:49:31;;;;;;;0.70;0.70;;;;;;;;;;10209091;28;20223;-77
2023/07/16 20:54:36;;;;;;;2.17;1.00;;;;;;;;;;10206687;28;20228;-81
2023/07/16 20:59:37;;;;;;;0.90;0.90;;;;;;;;;;10181466;28;20226;-78
2023/07/16 21:04:38;;;;;;;0.80;0.80;;;;;;;;;;10199435;28;21340;-79
2023/07/16 21:09:39;;;;;;;1.35;0.80;;;;;;;;;;10195484;28;20243;-76
2023/07/16 21:14:40;;;;;;;0.95;0.88;;;;;;;;;;10196911;28;20871;-78
2023/07/16 21:19:41;;;;;;;1.05;0.95;;;;;;;;;;10211864;28;20212;-77
2023/07/16 21:24:42;;;;;;;2.97;1.10;;;;;;;;;;10216919;28;20334;-78
2023/07/16 21:29:43;;;;;;;1.10;1.10;;;;;;;;;;10194203;28;20220;-77
2023/07/16 21:34:44;;;;;;;0.93;0.90;;;;;;;;;;10205325;28;20346;-77
2023/07/16 21:39:45;;;;;;;2.97;0.93;;;;;;;;;;10179001;28;20343;-79
2023/07/16 21:44:46;;;;;;;1.00;1.00;;;;;;;;;;10190835;28;20891;-77
2023/07/16 21:49:48;;;;;;;1.08;1.08;;;;;;;;;;10196364;28;20250;-75
2023/07/16 21:54:49;;;;;;;1.73;1.58;;;;;;;;;;10203405;28;20259;-81
2023/07/16 21:59:50;;;;;;;2.25;1.05;;;;;;;;;;10193217;28;20315;-78
2023/07/16 22:04:51;;;;;;;3.70;0.65;;;;;;;;;;10202736;28;20392;-78
2023/07/16 22:09:52;;;;;;;1.25;1.15;;;;;;;;;;10196290;28;20663;-77
2023/07/16 22:14:53;;;;;;;0.88;0.88;;;;;;;;;;10209047;28;20228;-77
2023/07/16 22:19:54;;;;;;;1.10;1.10;;;;;;;;;;10192032;28;20208;-77
2023/07/16 22:24:55;;;;;;;2.45;0.73;;;;;;;;;;10172441;28;20236;-79
2023/07/16 22:29:56;;;;;;;1.27;1.17;;;;;;;;;;10189182;28;20230;-78
2023/07/16 22:34:57;;;;;;;1.48;1.40;;;;;;;;;;10204523;28;20224;-79
2023/07/16 22:39:58;;;;;;;1.02;1.00;;;;;;;;;;10205230;28;20216;-77
2023/07/16 22:45:00;;;;;;;1.10;1.10;;;;;;;;;;10187414;28;20227;-80
2023/07/16 22:50:01;;;;;;;1.58;1.00;;;;;;;;;;10212187;28;20220;-76
2023/07/16 22:55:03;;;;;;;1.42;1.35;;;;;;;;;;10190646;28;20848;-77
2023/07/16 23:00:05;;;;;;;1.17;1.17;;;;;;;;;;10206544;28;20222;-78
2023/07/16 23:05:07;;;;;;;2.67;1.33;;;;;;;;;;10202619;28;20246;-77
2023/07/16 23:10:08;;;;;;;1.00;1.00;;;;;;;;;;10164369;28;20232;-77
2023/07/16 23:15:10;;;;;;;1.08;1.08;;;;;;;;;;10166648;28;20218;-77
2023/07/16 23:20:12;;;;;;;4.78;1.45;;;;;;;;;;10153803;28;22504;-77
2023/07/16 23:25:14;;;;;;;3.45;1.25;;;;;;;;;;10161063;28;21305;-75
2023/07/16 23:30:15;;;;;;;1.20;1.20;;;;;;;;;;10161228;28;21718;-76
2023/07/16 23:35:16;;;;;;;3.50;1.50;;;;;;;;;;10167969;28;22283;-74
2023/07/16 23:40:18;;;;;;;0.88;0.88;;;;;;;;;;10176515;28;21060;-77
2023/07/16 23:45:19;;;;;;;1.25;1.10;;;;;;;;;;10162524;28;20968;-76
2023/07/16 23:50:20;;;;;;;3.78;1.10;;;;;;;;;;10160914;28;20242;-79
2023/07/16 23:55:21;;;;;;;2.72;1.30;;;;;;;;;;10170778;28;20991;-80
